Time;durP1;ratioP1;P1;durP2;ratioP2;P2;SDS_P1;SDS_P2;PMS_P1;PMS_P2;Temp;Humidity;BMP_temperature;BMP_pressure;BME280_temperature;BME280_humidity;BME280_pressure;Samples;Min_cycle;Max_cycle;Signal;HPM_P1;HPM_P2
2023/12/18 15:24:22;;;;;;;2.72;1.55;;;;;;;11.43;48.20;93975.00;5114203;27;20387;-78
2023/12/18 15:26:47;;;;;;;2.50;1.50;;;;;;;11.32;49.01;93970.75;5115487;28;20036;-78
2023/12/18 15:29:13;;;;;;;3.03;1.60;;;;;;;11.19;48.91;93972.00;5115232;28;20036;-78
2023/12/18 15:31:38;;;;;;;3.13;1.60;;;;;;;11.06;49.74;93969.03;5116820;28;20466;-78
2023/12/18 15:34:04;;;;;;;2.42;1.30;;;;;;;10.93;50.88;93976.28;5117808;28;20047;-78
2023/12/18 15:36:29;;;;;;;2.35;1.50;;;;;;;10.82;50.44;93972.78;5111825;28;20440;-78
2023/12/18 15:38:55;;;;;;;2.28;1.40;;;;;;;10.69;50.25;93967.97;5109749;28;20058;-77
2023/12/18 15:41:21;;;;;;;2.08;1.38;;;;;;;10.66;50.45;93975.56;5109256;28;20439;-78
2023/12/18 15:43:57;;;;;;;2.63;1.50;;;;;;;10.52;50.94;93962.88;5114773;28;20073;-80
2023/12/18 15:46:23;;;;;;;2.05;1.30;;;;;;;10.48;51.06;93966.25;5124824;28;20098;-79
2023/12/18 15:49:08;;;;;;;2.25;1.30;;;;;;;10.33;51.57;93969.50;5125889;28;20059;-78
2023/12/18 15:51:33;;;;;;;2.08;1.27;;;;;;;10.25;52.05;93972.56;5124793;28;20031;-78
2023/12/18 15:53:59;;;;;;;2.15;1.40;;;;;;;10.20;51.55;93966.22;5119649;28;20040;-80
2023/12/18 15:56:24;;;;;;;2.90;1.25;;;;;;;10.11;52.13;93966.91;5119002;28;20114;-78
2023/12/18 15:59:01;;;;;;;2.05;1.40;;;;;;;10.06;52.67;93967.63;5117191;28;20488;-78
2023/12/18 16:01:27;;;;;;;2.83;1.42;;;;;;;9.97;54.23;93966.50;5117394;28;20050;-79
2023/12/18 16:04:02;;;;;;;2.83;1.58;;;;;;;9.89;54.82;93959.09;5117689;28;20027;-79
2023/12/18 16:06:28;;;;;;;2.13;1.52;;;;;;;9.80;55.34;93966.59;5096567;28;20039;-79
2023/12/18 16:08:53;;;;;;;2.03;1.27;;;;;;;9.70;54.85;93956.78;5111660;28;20051;-78
2023/12/18 16:11:19;;;;;;;3.28;1.52;;;;;;;9.68;54.91;93956.28;5112499;28;20028;-79
2023/12/18 16:13:45;;;;;;;2.88;1.50;;;;;;;9.65;54.88;93959.34;5110797;28;20035;-79
2023/12/18 16:16:11;;;;;;;4.22;1.60;;;;;;;9.56;54.26;93955.59;5114269;28;20032;-80
2023/12/18 16:18:38;;;;;;;2.83;1.50;;;;;;;9.51;54.89;93956.31;5111505;28;20040;-80
2023/12/18 16:21:04;;;;;;;1.73;1.10;;;;;;;9.47;53.73;93951.81;5112212;28;20027;-79
2023/12/18 16:23:29;;;;;;;1.50;1.23;;;;;;;9.43;53.47;93948.88;5110488;28;20533;-78
2023/12/18 16:25:55;;;;;;;1.67;1.30;;;;;;;9.37;53.41;93947.28;5110965;28;20089;-79
2023/12/18 16:28:20;;;;;;;2.03;1.25;;;;;;;9.26;54.29;93954.19;5113723;28;20028;-79
2023/12/18 16:30:48;;;;;;;2.05;1.33;;;;;;;9.18;54.17;93946.75;5112581;28;20071;-79
2023/12/18 16:33:14;;;;;;;2.97;1.40;;;;;;;9.10;54.20;93944.56;5112184;28;20032;-79
2023/12/18 16:35:39;;;;;;;2.40;1.45;;;;;;;9.08;55.28;93944.00;5101618;28;20051;-78
2023/12/18 16:38:06;;;;;;;1.42;1.20;;;;;;;9.04;55.82;93948.13;5101745;28;20048;-78
2023/12/18 16:40:32;;;;;;;3.00;1.75;;;;;;;9.00;55.52;93939.19;5095198;28;20111;-79
2023/12/18 16:42:58;;;;;;;4.60;2.53;;;;;;;8.97;55.23;93932.63;5081161;28;20546;-78
2023/12/18 16:45:24;;;;;;;4.65;2.45;;;;;;;8.93;55.63;93932.31;5086519;28;20036;-79
2023/12/18 16:47:49;;;;;;;4.13;2.20;;;;;;;8.88;55.61;93924.41;5100546;28;20505;-79
2023/12/18 16:50:15;;;;;;;3.92;2.20;;;;;;;8.84;55.94;93933.75;5097257;28;20063;-79
2023/12/18 16:52:42;;;;;;;7.15;3.22;;;;;;;8.81;55.33;93936.84;5099327;28;20089;-78
2023/12/18 16:55:08;;;;;;;4.97;2.95;;;;;;;8.74;55.71;93939.63;5100542;28;20486;-79
2023/12/18 16:57:34;;;;;;;5.03;3.20;;;;;;;8.66;56.79;93941.84;5088487;28;20587;-79
2023/12/18 16:59:59;;;;;;;5.93;3.17;;;;;;;8.58;57.47;93939.63;5075144;28;20060;-78
2023/12/18 17:02:26;;;;;;;7.30;2.80;;;;;;;8.51;57.83;93940.59;5075001;28;20012;-79
2023/12/18 17:04:52;;;;;;;3.13;1.95;;;;;;;8.50;57.50;93932.97;5073263;28;20044;-78
2023/12/18 17:07:17;;;;;;;3.47;2.15;;;;;;;8.50;58.21;93928.53;5055707;28;20090;-79
2023/12/18 17:09:43;;;;;;;4.88;3.08;;;;;;;8.45;58.22;93931.09;5073783;28;20029;-79
2023/12/18 17:12:10;;;;;;;4.82;2.70;;;;;;;8.43;58.52;93927.91;5074014;28;20100;-78
2023/12/18 17:14:36;;;;;;;4.20;2.95;;;;;;;8.41;58.11;93924.75;5074970;28;20561;-78
2023/12/18 17:17:01;;;;;;;4.55;3.00;;;;;;;8.39;57.83;93932.00;5074316;28;20130;-78
2023/12/18 17:19:27;;;;;;;6.80;4.85;;;;;;;8.36;57.23;93929.88;5073664;28;20025;-79
2023/12/18 17:21:52;;;;;;;9.32;6.20;;;;;;;8.37;56.83;93928.84;5073473;28;20123;-80
2023/12/18 17:24:18;;;;;;;4.68;3.00;;;;;;;8.36;57.44;93927.25;5062382;28;20040;-80
2023/12/18 17:26:44;;;;;;;3.30;1.95;;;;;;;8.34;57.88;93924.88;5094086;28;20044;-80
2023/12/18 17:29:10;;;;;;;4.22;2.83;;;;;;;8.31;58.27;93916.75;5098121;28;20071;-79
2023/12/18 17:31:36;;;;;;;5.95;4.68;;;;;;;8.29;58.21;93924.81;5095236;28;20429;-78
2023/12/18 17:34:05;;;;;;;6.28;3.63;;;;;;;8.25;58.31;93917.69;5083033;28;20040;-79
2023/12/18 17:36:31;;;;;;;4.20;2.40;;;;;;;8.18;58.26;93915.22;5077933;28;20123;-79
2023/12/18 17:38:57;;;;;;;5.75;4.40;;;;;;;8.15;58.47;93920.94;5077534;28;20031;-79
2023/12/18 17:41:23;;;;;;;8.82;6.65;;;;;;;8.13;59.03;93912.53;5080430;28;20121;-79
2023/12/18 17:43:49;;;;;;;6.20;3.88;;;;;;;8.11;59.42;93919.81;5086514;28;20537;-79
2023/12/18 17:46:15;;;;;;;4.93;2.70;;;;;;;8.07;59.10;93916.09;5096899;28;20523;-78
2023/12/18 17:48:41;;;;;;;3.38;2.10;;;;;;;8.08;59.44;93913.25;5097770;28;20044;-78
2023/12/18 17:51:07;;;;;;;5.95;2.40;;;;;;;8.06;59.44;93910.09;5099018;28;20503;-78
2023/12/18 17:53:32;;;;;;;3.40;2.03;;;;;;;8.02;59.14;93908.97;5100403;28;20403;-79
2023/12/18 17:55:58;;;;;;;4.78;2.40;;;;;;;8.03;58.65;93910.53;5101732;28;20047;-78
2023/12/18 17:58:23;;;;;;;3.63;2.10;;;;;;;8.02;58.35;93901.16;5101301;28;20510;-79
2023/12/18 18:00:49;;;;;;;3.25;1.80;;;;;;;8.02;58.71;93898.53;5097276;28;20115;-79
2023/12/18 18:03:15;;;;;;;5.35;2.00;;;;;;;7.98;58.37;93897.41;5099278;28;20028;-80
2023/12/18 18:05:41;;;;;;;4.28;2.10;;;;;;;7.99;58.26;93896.38;5107467;28;20031;-81
2023/12/18 18:08:07;;;;;;;3.08;1.90;;;;;;;7.99;57.94;93896.38;5100242;28;20031;-80
2023/12/18 18:10:32;;;;;;;2.63;1.58;;;;;;;8.00;57.87;93894.59;5100156;28;20038;-82
2023/12/18 18:12:58;;;;;;;3.42;2.05;;;;;;;7.99;57.51;93896.38;5081816;28;20024;-81
2023/12/18 18:15:24;;;;;;;3.97;2.47;;;;;;;7.96;57.86;93891.66;5102815;28;20216;-83
2023/12/18 18:17:50;;;;;;;5.38;1.95;;;;;;;7.90;58.09;93898.59;5101972;28;20043;-80
2023/12/18 18:20:16;;;;;;;6.47;1.80;;;;;;;7.81;58.86;93889.56;5104861;28;20105;-81
2023/12/18 18:22:42;;;;;;;2.60;1.60;;;;;;;7.86;59.18;93896.69;5094757;28;20056;-80
2023/12/18 18:25:08;;;;;;;2.10;1.40;;;;;;;7.85;60.13;93895.09;5095389;28;20047;-81
2023/12/18 18:27:34;;;;;;;2.92;1.50;;;;;;;7.83;59.99;93902.38;5102252;28;20073;-80
2023/12/18 18:30:09;;;;;;;3.28;1.90;;;;;;;7.80;60.08;93897.63;5104156;28;20044;-80
2023/12/18 18:32:35;;;;;;;4.47;2.80;;;;;;;7.79;59.39;93894.25;5101117;28;20033;-80
2023/12/18 18:35:01;;;;;;;4.35;2.63;;;;;;;7.76;59.01;93905.13;5103311;28;20504;-80
2023/12/18 18:37:27;;;;;;;2.55;1.70;;;;;;;7.72;58.87;93899.59;5107766;28;20088;-80
2023/12/18 18:39:54;;;;;;;3.53;2.10;;;;;;;7.69;58.66;93897.44;5108166;28;20100;-80
2023/12/18 18:42:20;;;;;;;4.00;2.38;;;;;;;7.68;58.89;93901.06;5102611;28;20035;-80
2023/12/18 18:44:45;;;;;;;3.03;1.73;;;;;;;7.69;58.83;93897.44;5104449;28;20063;-80
2023/12/18 18:47:11;;;;;;;4.45;2.08;;;;;;;7.70;58.60;93890.41;5083549;28;20055;-80
2023/12/18 18:49:37;;;;;;;3.67;2.20;;;;;;;7.71;57.91;93899.81;5108417;28;20401;-80
2023/12/18 18:52:06;;;;;;;4.63;2.55;;;;;;;7.68;58.10;93893.25;5108118;28;20043;-79
2023/12/18 18:54:37;;;;;;;4.82;2.92;;;;;;;7.72;57.71;93894.38;5106590;28;20040;-79
2023/12/18 18:57:11;;;;;;;3.40;2.17;;;;;;;7.71;58.23;93892.78;5091397;28;20074;-80
2023/12/18 18:59:38;;;;;;;3.00;1.98;;;;;;;7.71;58.84;93900.59;5108730;28;20060;-80
2023/12/18 19:02:04;;;;;;;4.63;2.10;;;;;;;7.67;59.41;93899.47;5108361;28;20026;-79
2023/12/18 19:04:29;;;;;;;4.15;2.33;;;;;;;7.66;58.85;93890.09;5108046;28;20035;-80
2023/12/18 19:06:55;;;;;;;5.75;2.90;;;;;;;7.65;58.28;93891.09;5107076;28;20070;-81
2023/12/18 19:09:20;;;;;;;11.23;6.03;;;;;;;7.64;58.17;93879.09;5102989;28;20025;-80
2023/12/18 19:11:46;;;;;;;7.32;4.25;;;;;;;7.61;57.92;93887.41;5102663;28;20549;-79
2023/12/18 19:14:11;;;;;;;6.20;3.50;;;;;;;7.60;57.64;93885.81;5097685;28;20044;-80
2023/12/18 19:16:37;;;;;;;9.05;4.68;;;;;;;7.61;57.61;93884.78;5102510;28;20040;-79
2023/12/18 19:19:02;;;;;;;61.38;26.90;;;;;;;7.63;58.63;93890.56;5101694;28;20032;-80
2023/12/18 19:21:28;;;;;;;47.17;18.42;;;;;;;7.64;57.83;93889.53;5096790;28;20436;-80
2023/12/18 19:23:53;;;;;;;61.47;24.70;;;;;;;7.64;57.91;93893.97;5099001;28;20130;-80
2023/12/18 19:26:19;;;;;;;38.03;16.75;;;;;;;7.62;58.80;93883.75;5099807;28;20139;-80
2023/12/18 19:28:45;;;;;;;45.67;21.90;;;;;;;7.61;58.34;93890.00;5104503;28;20510;-81
2023/12/18 19:31:10;;;;;;;21.20;11.65;;;;;;;7.61;57.98;93886.59;5104395;28;20032;-80
2023/12/18 19:33:36;;;;;;;9.88;5.70;;;;;;;7.59;57.48;93881.63;5101588;28;20040;-81
2023/12/18 19:36:06;;;;;;;8.23;5.00;;;;;;;7.58;57.49;93884.47;5097326;28;20032;-80
2023/12/18 19:38:33;;;;;;;5.88;3.72;;;;;;;7.47;58.06;93886.88;5101390;28;20438;-80
2023/12/18 19:41:00;;;;;;;3.95;2.20;;;;;;;7.48;57.33;93890.28;5100158;28;20067;-80
2023/12/18 19:43:26;;;;;;;3.72;2.25;;;;;;;7.47;57.05;93884.25;5102419;28;20121;-80
2023/12/18 19:45:52;;;;;;;3.80;2.25;;;;;;;7.47;57.47;93891.28;5100624;28;20132;-80
2023/12/18 19:48:18;;;;;;;3.50;2.10;;;;;;;7.47;57.17;93883.47;5105750;28;20066;-80
2023/12/18 19:50:43;;;;;;;3.45;1.73;;;;;;;7.48;57.61;93879.84;5103327;28;20036;-80
2023/12/18 19:53:09;;;;;;;2.40;1.60;;;;;;;7.46;57.85;93887.13;5105270;28;20055;-80
2023/12/18 19:55:36;;;;;;;7.75;4.60;;;;;;;7.44;57.16;93878.72;5079273;28;20041;-80
2023/12/18 19:58:01;;;;;;;7.32;4.82;;;;;;;7.43;56.22;93877.94;5096458;28;20059;-80
2023/12/18 20:00:27;;;;;;;5.00;3.33;;;;;;;7.42;56.56;93878.97;5100568;28;20075;-80
2023/12/18 20:02:52;;;;;;;2.63;1.80;;;;;;;7.37;56.81;93872.88;5095136;28;20125;-80
2023/12/18 20:05:18;;;;;;;6.07;1.63;;;;;;;7.40;56.87;93880.22;5100476;28;20057;-80
2023/12/18 20:07:43;;;;;;;4.93;1.42;;;;;;;7.42;56.22;93880.78;5093267;28;20100;-80
2023/12/18 20:10:11;;;;;;;1.15;1.08;;;;;;;7.42;56.31;93875.56;5101069;28;20365;-80
2023/12/18 20:12:37;;;;;;;1.48;1.17;;;;;;;7.41;56.71;93879.22;5102898;28;20092;-80
2023/12/18 20:15:04;;;;;;;1.52;1.15;;;;;;;7.39;57.35;93882.03;5105004;28;20028;-80
2023/12/18 20:17:29;;;;;;;1.67;1.20;;;;;;;7.37;57.69;93878.88;5107619;28;20506;-79
2023/12/18 20:19:56;;;;;;;2.20;1.50;;;;;;;7.34;57.92;93868.13;5100346;28;20036;-79
2023/12/18 20:22:23;;;;;;;3.70;2.00;;;;;;;7.32;57.16;93876.19;5106859;28;20054;-80
2023/12/18 20:24:49;;;;;;;3.60;2.20;;;;;;;7.30;55.96;93873.78;5102902;28;20050;-79
2023/12/18 20:27:15;;;;;;;2.17;1.55;;;;;;;7.27;56.53;93863.03;5103134;28;20035;-78
2023/12/18 20:29:40;;;;;;;1.88;1.30;;;;;;;7.25;57.18;93865.88;5107216;28;20364;-80
2023/12/18 20:32:06;;;;;;;1.63;1.10;;;;;;;7.23;57.45;93864.53;5106067;28;20145;-80
2023/12/18 20:34:33;;;;;;;2.17;1.20;;;;;;;7.19;58.09;93861.59;5107628;28;20044;-80
2023/12/18 20:36:59;;;;;;;1.00;0.90;;;;;;;7.17;58.18;93860.25;5108853;28;20040;-79
2023/12/18 20:39:25;;;;;;;1.10;1.00;;;;;;;7.14;58.40;93856.31;5107807;28;20050;-80
2023/12/18 20:41:50;;;;;;;2.13;1.50;;;;;;;7.12;58.00;93860.94;5106428;28;20032;-81
2023/12/18 20:44:17;;;;;;;2.95;1.50;;;;;;;7.04;57.91;93848.28;5100997;28;20065;-80
2023/12/18 20:46:44;;;;;;;3.25;1.42;;;;;;;7.04;57.54;93856.09;5107326;28;20039;-80
2023/12/18 20:49:10;;;;;;;2.30;1.50;;;;;;;6.99;56.92;93856.78;5111149;28;20069;-80
2023/12/18 20:51:41;;;;;;;2.58;1.70;;;;;;;6.97;56.87;93861.41;5107219;28;20040;-80
2023/12/18 20:54:07;;;;;;;3.47;1.90;;;;;;;6.91;56.11;93851.91;5103590;28;20043;-80
2023/12/18 20:56:33;;;;;;;2.00;1.40;;;;;;;6.95;56.12;93854.88;5107837;28;20056;-80
2023/12/18 20:58:59;;;;;;;4.05;1.90;;;;;;;6.96;56.13;93856.44;5100015;28;20036;-80
2023/12/18 21:01:25;;;;;;;3.60;1.88;;;;;;;6.99;56.62;93866.41;5102888;28;20042;-79
2023/12/18 21:03:53;;;;;;;7.18;3.38;;;;;;;6.97;56.45;93860.63;5107626;28;20043;-80
2023/12/18 21:06:27;;;;;;;3.53;2.00;;;;;;;6.93;56.65;93859.50;5109249;28;20450;-80
2023/12/18 21:08:52;;;;;;;2.17;1.50;;;;;;;6.91;56.46;93866.75;5109827;28;20063;-80
2023/12/18 21:11:19;;;;;;;2.15;1.30;;;;;;;6.79;56.20;93851.94;5103767;28;20480;-79
2023/12/18 21:13:45;;;;;;;3.50;1.20;;;;;;;6.84;55.85;93857.25;5105157;28;20060;-79
2023/12/18 21:16:12;;;;;;;1.88;1.40;;;;;;;6.84;56.15;93856.47;5098637;28;21349;-81
2023/12/18 21:18:40;;;;;;;1.77;1.38;;;;;;;6.84;56.31;93862.44;5104289;28;20269;-81
2023/12/18 21:21:07;;;;;;;2.47;1.70;;;;;;;6.83;56.63;93860.09;5094785;28;20717;-82
2023/12/18 21:23:32;;;;;;;4.07;3.03;;;;;;;6.82;57.08;93850.69;5102965;28;20044;-80
2023/12/18 21:25:58;;;;;;;4.78;3.08;;;;;;;6.79;57.21;93856.38;5103502;28;20042;-80
2023/12/18 21:28:23;;;;;;;4.55;2.58;;;;;;;6.77;57.21;93856.59;5079423;28;20036;-81
2023/12/18 21:30:50;;;;;;;3.20;2.00;;;;;;;6.76;57.77;93859.44;5098171;28;20035;-81
2023/12/18 21:33:15;;;;;;;3.42;1.80;;;;;;;6.73;58.64;93863.25;5100172;28;20025;-81
2023/12/18 21:35:41;;;;;;;3.65;1.90;;;;;;;6.72;58.41;93861.69;5101536;28;20058;-81
2023/12/18 21:38:06;;;;;;;3.70;1.90;;;;;;;6.70;59.13;93863.72;5098338;28;20543;-80
2023/12/18 21:40:32;;;;;;;3.33;1.80;;;;;;;6.69;58.36;93864.75;5098040;28;20067;-80
2023/12/18 21:42:57;;;;;;;2.70;1.50;;;;;;;6.69;58.19;93867.38;5099871;28;20117;-81
2023/12/18 21:45:23;;;;;;;2.58;1.50;;;;;;;6.67;58.63;93861.59;5102062;28;20020;-81
2023/12/18 21:47:50;;;;;;;2.25;1.60;;;;;;;6.66;59.20;93854.78;5094330;28;20048;-82
2023/12/18 21:50:15;;;;;;;2.55;1.50;;;;;;;6.62;59.47;93856.25;5100305;28;20039;-82
2023/12/18 21:52:41;;;;;;;2.38;1.40;;;;;;;6.56;58.93;93841.56;5106433;28;20039;-82
2023/12/18 21:55:07;;;;;;;2.03;1.30;;;;;;;6.61;59.16;93844.28;5105372;28;20051;-81
2023/12/18 21:57:32;;;;;;;2.05;1.30;;;;;;;6.62;59.24;93851.06;5102802;28;20083;-81
2023/12/18 21:59:59;;;;;;;3.58;1.55;;;;;;;6.60;59.25;93853.13;5103081;28;20040;-82
2023/12/18 22:02:25;;;;;;;2.58;1.35;;;;;;;6.53;59.02;93844.63;5101649;28;20028;-82
2023/12/18 22:04:51;;;;;;;1.83;1.17;;;;;;;6.60;59.03;93842.72;5102600;28;20054;-81
2023/12/18 22:07:16;;;;;;;1.92;1.27;;;;;;;6.58;58.51;93839.53;5106293;28;20032;-81
2023/12/18 22:09:42;;;;;;;1.65;1.20;;;;;;;6.55;59.07;93839.97;5100401;28;20036;-81
2023/12/18 22:12:07;;;;;;;1.42;1.20;;;;;;;6.52;59.17;93830.81;5101252;28;20077;-81
2023/12/18 22:14:33;;;;;;;1.85;1.25;;;;;;;6.42;60.26;93815.78;5100676;28;20036;-80
2023/12/18 22:16:59;;;;;;;2.13;1.30;;;;;;;6.48;61.05;93808.88;5100307;28;20046;-81
2023/12/18 22:19:25;;;;;;;1.30;1.17;;;;;;;6.51;62.26;93820.63;5106713;28;20031;-81
